Main page
METAR-TAF:

METAR-TAF

Airports :

Strasbourg Airport

Strasbourg, France

latitude: 48-33N, longitude: 007-38E, elevation: 153 m

Current weather observation

The report was made 42 minutes ago, at 08:00 UTC
Wind 6 kt from the South
Temperature 8°C
Humidity 57%
Pressure 1017 hPa
Visibility 10 km or more
no clouds below 1500 m and no cumulonimbus

METAR: LFST 030800Z AUTO 18006KT CAVOK 08/00 Q1017 NOSIG

Time: 10:42 (08:42 UTC)

Forecast

The report was made 3 hours and 42 minutes ago, at 05:00 UTC
Forecast valid from 03 at 06 UTC to 04 at 06 UTC
Wind 5 kt from the South
Visibility 10 km or more
Broken clouds at a height of 5000 ft
Becoming
from 03 at 15 UTC to 03 at 17 UTC
Wind 6 kt from the North/Northwest
Visibility 10 km or more
no clouds below 1500 m and no cumulonimbus

TAF: LFST 030500Z 0306/0406 17005KT 9999 BKN050 BECMG 0315/0317 33006KT CAVOK

Weather observations and forecasts of more than 4000 airports (METAR and TAF reports).

The available stations are represented by yellow and red dots on the map.

Hover mouse over dot to see the name of the station.

Then click to see weather observations and forecasts.

To change the map : click on the green buttons with a black cross to zoom in, on the green button with a dash to zoom out, or on the green arrows for adjacent maps.


METAR-TAF: